Hlavní strana
METAR-TAF:

METAR-TAF

Letiště :

Letiště Teherán-Mehrabád

Teherán, Írán

zeměpisná šířka: 35-41N, zeměpisná délka: 051-21E, výška: 1204 m

Aktuální stav počasí

Zpráva byla vytvořena před 21 minutami, v 23:00 UTC
Bezvětří
Teplota 1°C
Vlhkost vzduchu 64%
Tlak 1017 hPa
Viditelnost 10 km a více
Žádná oblačnost pod 1500 m, nevyskytují se cumulonimby.

METAR: OIII 222300Z 00000KT CAVOK 01/M05 Q1016 A3002 NOSIG

Čas: 02:51 (23:21 UTC)

Předpověď počasí

Zpráva byla vytvořena před 5 hodinami a 51 minutami, v 17:30 UTC
Předpověď platná od 22 v 18 UTC do 23 v 24 UTC
Severozápadní vítr 6 kt
Viditelnost: 8000 m
Změna
od 23 v 03 UTC do 23 v 05 UTC
Viditelnost: 4000 m
zákal
Změna
od 23 v 10 UTC do 23 v 12 UTC
Viditelnost: 6000 m

TAF: OIII 221730Z 2218/2324 32006KT 8000 NSC BECMG 2303/2305 4000 HZ BECMG 2310/2312 6000 NSC

Stav a předpovědi počasí z více než 4 000 letišť (zprávy METAR a TAF).

Červené a žluté tečky na mapě představují dostupné meteorologické stanice.

Když kurzor umístíte na tečku, zobrazí se název stanice.

Pak kliknutím zobrazíte stav a předpověď počasí.

Chcete-li změnit mapu, kliknutím na zelené tlačítko se znaménkem +mapu přiblížíte, kliknutím na zelené tlačítko se znaménkem – mapu oddálíte a kliknutím na zelené šipky přejdete na sousední mapy.


METAR-TAF: